createdAt,value
2023-03-26T00:01:36.569Z,9.50
2023-03-26T00:04:04.529Z,9.50
2023-03-26T00:06:34.865Z,9.40
2023-03-26T00:09:01.477Z,9.50
2023-03-26T00:11:29.047Z,9.50
2023-03-26T00:13:59.145Z,9.50
2023-03-26T00:16:27.712Z,9.50
2023-03-26T00:18:54.650Z,9.40
2023-03-26T00:21:26.116Z,9.40
2023-03-26T00:23:53.593Z,9.40
2023-03-26T00:26:20.209Z,9.40
2023-03-26T00:28:47.207Z,9.40
2023-03-26T00:31:14.886Z,9.40
2023-03-26T00:33:41.808Z,9.50
2023-03-26T00:36:14.715Z,9.50
2023-03-26T00:38:41.724Z,9.40
2023-03-26T00:41:17.889Z,9.40
2023-03-26T00:43:48.536Z,9.40
2023-03-26T00:46:15.604Z,9.40
2023-03-26T00:48:46.008Z,9.40
2023-03-26T00:51:15.338Z,9.40
2023-03-26T00:53:42.904Z,9.40
2023-03-26T00:56:09.906Z,9.40
2023-03-26T00:58:37.182Z,9.30
2023-03-26T01:01:05.661Z,9.40
2023-03-26T01:03:36.162Z,9.40
2023-03-26T01:06:08.094Z,9.30
2023-03-26T01:08:42.753Z,9.40
2023-03-26T01:11:14.526Z,9.30
2023-03-26T01:13:46.323Z,9.40
2023-03-26T01:16:20.346Z,9.30
2023-03-26T01:18:48.523Z,9.20
2023-03-26T01:21:22.468Z,9.20
2023-03-26T01:23:57.184Z,9.20
2023-03-26T01:26:29.700Z,9.10
2023-03-26T01:28:57.628Z,9.10
2023-03-26T01:31:37.187Z,9.00
2023-03-26T01:34:18.469Z,9.00
2023-03-26T01:36:51.683Z,9.00
2023-03-26T01:39:26.115Z,9.10
2023-03-26T01:41:56.353Z,9.20
2023-03-26T01:44:22.969Z,9.10
2023-03-26T01:46:50.021Z,9.10
2023-03-26T01:49:17.789Z,9.10
2023-03-26T01:51:44.371Z,9.10
2023-03-26T01:54:21.168Z,9.10
2023-03-26T01:57:06.479Z,9.10
2023-03-26T01:59:53.670Z,9.10
2023-03-26T02:02:21.597Z,9.10
2023-03-26T02:05:04.731Z,9.00
2023-03-26T02:07:37.834Z,9.10
2023-03-26T02:10:26.047Z,9.10
2023-03-26T02:12:53.180Z,9.10
2023-03-26T02:15:20.232Z,9.00
2023-03-26T02:17:47.012Z,9.00
2023-03-26T02:20:14.515Z,9.00
2023-03-26T02:22:45.578Z,8.90
2023-03-26T02:25:13.323Z,8.90
2023-03-26T02:27:40.499Z,8.80
2023-03-26T02:30:08.548Z,8.70
2023-03-26T02:32:35.323Z,8.70
2023-03-26T02:35:02.511Z,8.60
2023-03-26T02:37:30.381Z,8.60
2023-03-26T02:39:57.052Z,8.60
2023-03-26T02:42:23.694Z,8.60
2023-03-26T02:44:50.444Z,8.50
2023-03-26T02:47:17.176Z,8.50
2023-03-26T02:49:43.791Z,8.50
2023-03-26T02:52:10.455Z,8.60
2023-03-26T02:54:37.281Z,8.60
2023-03-26T02:57:03.950Z,8.60
2023-03-26T02:59:30.748Z,8.70
2023-03-26T03:01:57.360Z,8.70
2023-03-26T03:04:23.996Z,8.70
2023-03-26T03:06:52.901Z,8.80
2023-03-26T03:09:20.092Z,8.80
2023-03-26T03:11:46.750Z,8.80
2023-03-26T03:14:13.343Z,8.80
2023-03-26T03:16:40.036Z,8.70
2023-03-26T03:19:06.722Z,8.80
2023-03-26T03:21:33.291Z,8.90
2023-03-26T03:24:00.653Z,8.90
2023-03-26T03:26:27.620Z,8.90
2023-03-26T03:28:56.431Z,8.90
2023-03-26T03:31:24.686Z,8.90
2023-03-26T03:33:51.421Z,8.90
2023-03-26T03:36:20.996Z,8.90
2023-03-26T03:38:48.932Z,8.90
2023-03-26T03:41:17.346Z,8.90
2023-03-26T03:43:44.315Z,9.00
2023-03-26T03:46:10.978Z,8.90
2023-03-26T03:48:40.267Z,8.90
2023-03-26T03:51:06.996Z,8.90
2023-03-26T03:53:36.907Z,8.90
2023-03-26T03:56:04.682Z,8.90
2023-03-26T03:58:31.415Z,9.00
2023-03-26T04:01:04.130Z,9.00
2023-03-26T04:03:33.161Z,8.90
2023-03-26T04:06:01.116Z,8.90
2023-03-26T04:08:27.711Z,8.90
2023-03-26T04:10:54.329Z,8.90
2023-03-26T04:13:21.488Z,8.90
2023-03-26T04:15:48.331Z,8.80
2023-03-26T04:18:15.272Z,8.80
2023-03-26T04:20:46.522Z,8.80
2023-03-26T04:23:14.318Z,8.80
2023-03-26T04:25:42.294Z,8.80
2023-03-26T04:28:09.049Z,8.90
2023-03-26T04:30:36.030Z,8.90
2023-03-26T04:33:06.730Z,8.90
2023-03-26T04:35:36.450Z,8.90
2023-03-26T04:38:06.362Z,8.90
2023-03-26T04:40:34.649Z,8.80
2023-03-26T04:43:02.398Z,8.80
2023-03-26T04:45:30.378Z,8.80
2023-03-26T04:47:58.284Z,8.80
2023-03-26T04:50:25.470Z,8.80
2023-03-26T04:52:53.807Z,8.80
2023-03-26T04:55:24.973Z,8.80
2023-03-26T04:57:59.556Z,8.80
2023-03-26T05:00:26.432Z,8.80
2023-03-26T05:02:56.209Z,8.80
2023-03-26T05:05:23.324Z,8.80
2023-03-26T05:07:49.986Z,8.80
2023-03-26T05:10:17.067Z,8.90
2023-03-26T05:12:43.657Z,8.90
2023-03-26T05:15:11.373Z,8.90
2023-03-26T05:17:41.489Z,8.80
2023-03-26T05:20:16.764Z,8.80
2023-03-26T05:22:43.716Z,8.80
2023-03-26T05:25:10.908Z,8.70
2023-03-26T05:27:37.557Z,8.80
2023-03-26T05:30:05.398Z,8.80
2023-03-26T05:32:32.172Z,8.90
2023-03-26T05:34:59.104Z,8.80
2023-03-26T05:37:25.924Z,8.90
2023-03-26T05:39:53.853Z,8.80
2023-03-26T05:42:20.886Z,8.90
2023-03-26T05:44:47.638Z,8.90
2023-03-26T05:47:14.312Z,8.90
2023-03-26T05:49:41.069Z,8.90
2023-03-26T05:52:08.151Z,9.00
2023-03-26T05:54:34.864Z,9.00
2023-03-26T05:57:01.526Z,9.00
2023-03-26T05:59:28.140Z,8.90
2023-03-26T06:01:54.771Z,8.90
2023-03-26T06:04:21.722Z,8.80
2023-03-26T06:06:48.536Z,8.90
2023-03-26T06:09:15.098Z,8.90
2023-03-26T06:11:41.875Z,8.80
2023-03-26T06:14:08.585Z,8.80
2023-03-26T06:16:35.252Z,8.70
2023-03-26T06:19:01.919Z,8.70
2023-03-26T06:21:28.625Z,8.70
2023-03-26T06:23:55.292Z,8.70
2023-03-26T06:26:22.212Z,8.70
2023-03-26T06:28:48.926Z,8.70
2023-03-26T06:31:17.227Z,8.80
2023-03-26T06:33:43.966Z,8.80
2023-03-26T06:36:10.748Z,8.80
2023-03-26T06:38:37.338Z,8.90
2023-03-26T06:41:04.768Z,8.90
2023-03-26T06:43:33.668Z,8.90
2023-03-26T06:46:04.084Z,9.00
2023-03-26T06:48:31.233Z,9.10
2023-03-26T06:50:58.050Z,9.20
2023-03-26T06:53:24.670Z,9.30
2023-03-26T06:55:52.625Z,9.30
2023-03-26T06:58:19.440Z,9.30
2023-03-26T07:00:46.193Z,9.40
2023-03-26T07:03:12.913Z,9.50
2023-03-26T07:05:42.647Z,9.70
2023-03-26T07:08:09.256Z,9.70
2023-03-26T07:10:35.885Z,9.60
2023-03-26T07:13:02.525Z,9.70
2023-03-26T07:15:29.171Z,9.80
2023-03-26T07:17:56.604Z,9.90
2023-03-26T07:20:23.275Z,10.10
2023-03-26T07:22:50.481Z,10.10
2023-03-26T07:25:17.788Z,10.20
2023-03-26T07:27:53.420Z,10.20
2023-03-26T07:30:25.461Z,10.00
2023-03-26T07:32:52.138Z,10.20
2023-03-26T07:35:27.646Z,10.20
2023-03-26T07:38:06.571Z,10.30
2023-03-26T07:40:51.973Z,10.10
2023-03-26T07:43:31.192Z,10.00
2023-03-26T07:45:58.213Z,10.00
2023-03-26T07:48:27.115Z,10.00
2023-03-26T07:50:54.476Z,10.00
2023-03-26T07:53:21.615Z,9.90
2023-03-26T07:55:54.459Z,9.70
2023-03-26T07:58:39.687Z,9.60
2023-03-26T08:01:10.573Z,9.60
2023-03-26T08:04:23.606Z,9.60
2023-03-26T08:06:59.576Z,9.60
2023-03-26T08:09:39.607Z,9.80
2023-03-26T08:12:27.771Z,9.90
2023-03-26T08:15:05.791Z,10.00
2023-03-26T08:17:42.668Z,10.20
2023-03-26T08:20:12.330Z,10.40
2023-03-26T08:22:41.172Z,10.60
2023-03-26T08:25:19.758Z,10.60
2023-03-26T08:27:51.769Z,10.70
2023-03-26T08:30:26.063Z,10.80
2023-03-26T08:32:56.174Z,10.70
2023-03-26T08:35:23.796Z,10.30
2023-03-26T08:37:51.770Z,10.20
2023-03-26T08:40:34.778Z,10.10
2023-03-26T08:43:09.212Z,10.00
2023-03-26T08:45:52.278Z,10.00
2023-03-26T08:48:18.849Z,9.90
2023-03-26T08:50:48.570Z,9.90
2023-03-26T08:53:27.000Z,9.90
2023-03-26T08:55:56.082Z,10.00
2023-03-26T08:58:41.657Z,10.00
2023-03-26T09:01:27.249Z,10.00
2023-03-26T09:04:12.706Z,10.00
2023-03-26T09:06:39.314Z,10.00
2023-03-26T09:09:05.943Z,9.90
2023-03-26T09:11:53.174Z,9.80
2023-03-26T09:14:32.010Z,9.60
2023-03-26T09:16:58.607Z,9.50
2023-03-26T09:19:28.069Z,9.50
2023-03-26T09:22:01.586Z,9.60
2023-03-26T09:24:46.769Z,9.50
2023-03-26T09:27:28.836Z,9.50
2023-03-26T09:30:04.513Z,9.50
2023-03-26T09:32:49.968Z,9.40
2023-03-26T09:35:35.474Z,9.40
2023-03-26T09:38:16.875Z,9.40
2023-03-26T09:41:03.708Z,9.40
2023-03-26T09:43:39.118Z,9.30
2023-03-26T09:46:19.804Z,9.20
2023-03-26T09:48:55.680Z,9.20
2023-03-26T09:51:27.658Z,9.20
2023-03-26T09:54:13.182Z,9.10
2023-03-26T09:56:49.741Z,9.20
2023-03-26T09:59:22.194Z,9.20
2023-03-26T10:01:48.741Z,9.20
2023-03-26T10:04:36.884Z,9.30
2023-03-26T10:07:06.346Z,9.30
2023-03-26T10:09:32.909Z,9.40
2023-03-26T10:12:02.705Z,9.50
2023-03-26T10:14:34.768Z,9.60
2023-03-26T10:17:04.840Z,9.80
2023-03-26T10:19:34.883Z,10.00
2023-03-26T10:22:17.553Z,10.10
2023-03-26T10:24:47.547Z,10.20
2023-03-26T10:27:33.129Z,10.10
2023-03-26T10:30:07.757Z,10.00
2023-03-26T10:32:46.648Z,9.90
2023-03-26T10:35:13.383Z,9.80
2023-03-26T10:38:05.059Z,9.70
2023-03-26T10:40:42.828Z,9.80
2023-03-26T10:43:36.335Z,9.70
2023-03-26T10:46:18.360Z,9.70
2023-03-26T10:49:12.824Z,9.70
2023-03-26T10:51:48.605Z,9.90
2023-03-26T10:54:28.306Z,10.10
2023-03-26T10:56:55.356Z,10.40
2023-03-26T10:59:22.137Z,10.70
2023-03-26T11:01:48.735Z,11.00
2023-03-26T11:04:20.556Z,11.30
2023-03-26T11:06:55.286Z,11.90
2023-03-26T11:09:31.224Z,12.70
2023-03-26T11:12:26.371Z,13.40
2023-03-26T11:15:10.545Z,16.10
2023-03-26T11:17:41.643Z,17.60
2023-03-26T11:20:08.574Z,18.30
2023-03-26T11:22:54.308Z,18.60
2023-03-26T11:25:39.665Z,18.50
2023-03-26T11:28:16.359Z,17.80
2023-03-26T11:30:59.046Z,20.50
2023-03-26T11:33:45.424Z,21.90
2023-03-26T11:36:14.946Z,21.20
2023-03-26T11:38:43.559Z,20.80
2023-03-26T11:41:22.410Z,20.00
2023-03-26T11:43:55.421Z,18.70
2023-03-26T11:46:23.472Z,17.60
2023-03-26T11:48:57.484Z,16.90
2023-03-26T11:51:29.842Z,17.30
2023-03-26T11:53:57.683Z,18.30
2023-03-26T11:56:37.022Z,18.40
2023-03-26T11:59:12.574Z,18.60
2023-03-26T12:01:44.041Z,18.00
2023-03-26T12:04:16.153Z,17.50
2023-03-26T12:06:56.493Z,16.70
2023-03-26T12:09:23.803Z,16.20
2023-03-26T12:11:52.705Z,15.40
2023-03-26T12:14:23.270Z,14.80
2023-03-26T12:17:00.419Z,16.20
2023-03-26T12:19:28.958Z,16.60
2023-03-26T12:21:55.612Z,17.40
2023-03-26T12:24:29.519Z,19.70
2023-03-26T12:26:58.073Z,22.10
2023-03-26T12:29:24.738Z,24.50
2023-03-26T12:31:54.494Z,25.40
2023-03-26T12:34:23.014Z,25.30
2023-03-26T12:36:52.126Z,26.10
2023-03-26T12:40:11.855Z,27.00
2023-03-26T12:44:54.605Z,27.40
2023-03-26T12:45:41.345Z,26.10
2023-03-26T12:48:11.669Z,27.60
2023-03-26T12:50:38.305Z,25.30
2023-03-26T12:53:04.963Z,22.20
2023-03-26T12:55:36.673Z,20.30
2023-03-26T12:58:22.136Z,18.90
2023-03-26T13:00:48.739Z,17.90
2023-03-26T13:03:18.650Z,18.40
2023-03-26T13:05:54.641Z,20.30
2023-03-26T13:08:36.164Z,20.30
2023-03-26T13:11:15.010Z,21.50
2023-03-26T13:14:00.699Z,21.30
2023-03-26T13:16:46.492Z,19.80
2023-03-26T13:19:13.156Z,17.90
2023-03-26T13:21:50.346Z,16.70
2023-03-26T13:24:27.203Z,16.10
2023-03-26T13:26:59.887Z,16.20
2023-03-26T13:29:38.371Z,16.40
2023-03-26T13:32:25.352Z,16.80
2023-03-26T13:35:24.454Z,17.00
2023-03-26T13:37:54.024Z,16.70
2023-03-26T13:40:33.466Z,16.50
2023-03-26T13:43:06.111Z,15.90
2023-03-26T13:45:54.877Z,15.50
2023-03-26T13:48:27.024Z,15.00
2023-03-26T13:50:58.354Z,14.60
2023-03-26T13:53:26.882Z,14.60
2023-03-26T13:55:56.636Z,14.60
2023-03-26T13:58:34.397Z,14.50
2023-03-26T14:01:09.525Z,14.40
2023-03-26T14:03:42.745Z,14.40
2023-03-26T14:06:21.270Z,14.50
2023-03-26T14:08:52.240Z,14.80
2023-03-26T14:11:42.170Z,14.90
2023-03-26T14:14:26.112Z,14.90
2023-03-26T14:16:56.226Z,14.80
2023-03-26T14:19:29.103Z,14.80
2023-03-26T14:22:14.398Z,14.90
2023-03-26T14:24:47.129Z,14.70
2023-03-26T14:27:26.021Z,14.70
2023-03-26T14:29:57.372Z,14.50
2023-03-26T14:32:43.839Z,15.10
2023-03-26T14:35:13.518Z,15.70
2023-03-26T14:37:40.098Z,15.60
2023-03-26T14:40:12.876Z,15.20
2023-03-26T14:43:04.425Z,14.90
2023-03-26T14:45:43.299Z,14.80
2023-03-26T14:48:28.958Z,14.90
2023-03-26T14:51:07.267Z,15.00
2023-03-26T14:53:36.201Z,15.10
2023-03-26T14:56:10.307Z,15.60
2023-03-26T14:58:46.125Z,16.20
2023-03-26T15:01:42.659Z,17.80
2023-03-26T15:04:27.943Z,18.70
2023-03-26T15:07:13.330Z,19.60
2023-03-26T15:09:58.906Z,20.50
2023-03-26T15:12:44.324Z,21.10
2023-03-26T15:15:23.164Z,21.00
2023-03-26T15:18:08.699Z,20.50
2023-03-26T15:20:35.426Z,19.40
2023-03-26T15:23:20.615Z,17.90
2023-03-26T15:25:56.884Z,16.90
2023-03-26T15:28:29.746Z,16.10
2023-03-26T15:31:19.822Z,15.90
2023-03-26T15:33:46.408Z,16.10
2023-03-26T15:36:32.517Z,16.20
2023-03-26T15:39:05.249Z,16.20
2023-03-26T15:41:50.731Z,16.30
2023-03-26T15:44:25.713Z,16.30
2023-03-26T15:47:16.587Z,16.00
2023-03-26T15:49:53.785Z,15.80
2023-03-26T15:52:23.906Z,15.90
2023-03-26T15:54:57.317Z,15.90
2023-03-26T15:57:41.082Z,15.90
2023-03-26T16:00:22.340Z,15.80
2023-03-26T16:02:53.882Z,15.60
2023-03-26T16:05:24.155Z,15.30
2023-03-26T16:07:53.916Z,14.90
2023-03-26T16:10:35.982Z,14.50
2023-03-26T16:13:21.511Z,14.00
2023-03-26T16:16:07.075Z,13.70
2023-03-26T16:18:34.020Z,13.40
2023-03-26T16:21:01.843Z,13.20
2023-03-26T16:23:55.042Z,13.00
2023-03-26T16:26:27.866Z,12.80
2023-03-26T16:29:02.217Z,12.70
2023-03-26T16:31:37.891Z,12.60
2023-03-26T16:34:07.038Z,12.50
2023-03-26T16:36:34.666Z,12.40
2023-03-26T16:39:04.915Z,12.30
2023-03-26T16:41:51.577Z,12.20
2023-03-26T16:44:21.008Z,12.20
2023-03-26T16:47:06.681Z,12.10
2023-03-26T16:49:39.345Z,12.00
2023-03-26T16:52:23.471Z,11.90
2023-03-26T16:54:53.994Z,11.80
2023-03-26T16:57:24.576Z,11.70
2023-03-26T17:00:05.141Z,11.50
2023-03-26T17:02:36.759Z,11.40
2023-03-26T17:05:26.762Z,11.30
2023-03-26T17:08:01.144Z,11.20
2023-03-26T17:10:35.714Z,11.20
2023-03-26T17:13:06.104Z,11.10
2023-03-26T17:15:32.680Z,11.00
2023-03-26T17:18:16.227Z,11.00
2023-03-26T17:20:42.911Z,10.90
2023-03-26T17:23:12.251Z,10.80
2023-03-26T17:25:54.735Z,10.80
2023-03-26T17:28:41.567Z,10.70
2023-03-26T17:31:20.348Z,10.60
2023-03-26T17:33:47.934Z,10.50
2023-03-26T17:36:16.468Z,10.50
2023-03-26T17:38:46.344Z,10.40
2023-03-26T17:41:15.405Z,10.40
2023-03-26T17:43:43.086Z,10.30
2023-03-26T17:46:31.805Z,10.30
2023-03-26T17:49:04.693Z,10.20
2023-03-26T17:51:40.334Z,10.20
2023-03-26T17:54:08.405Z,10.10
2023-03-26T17:56:37.764Z,10.10
2023-03-26T17:59:11.474Z,10.10
2023-03-26T18:01:41.250Z,10.00
2023-03-26T18:04:19.488Z,10.00
2023-03-26T18:07:16.784Z,9.90
2023-03-26T18:09:58.719Z,9.90
2023-03-26T18:12:37.713Z,9.90
2023-03-26T18:15:07.720Z,9.80
2023-03-26T18:17:40.120Z,9.80
2023-03-26T18:20:07.261Z,9.70
2023-03-26T18:22:34.053Z,9.80
2023-03-26T18:25:01.586Z,9.70
2023-03-26T18:27:39.021Z,9.70
2023-03-26T18:30:19.684Z,9.70
2023-03-26T18:33:00.164Z,9.60
2023-03-26T18:35:35.007Z,9.60
2023-03-26T18:38:03.413Z,9.50
2023-03-26T18:40:39.587Z,9.50
2023-03-26T18:43:06.363Z,9.40
2023-03-26T18:45:37.145Z,9.40
2023-03-26T18:48:22.759Z,9.30
2023-03-26T18:51:06.060Z,9.30
2023-03-26T18:53:40.689Z,9.20
2023-03-26T18:56:26.009Z,9.10
2023-03-26T18:58:52.659Z,9.00
2023-03-26T19:01:25.828Z,9.10
2023-03-26T19:03:53.629Z,9.00
2023-03-26T19:06:20.938Z,8.90
2023-03-26T19:08:47.949Z,8.90
2023-03-26T19:11:16.148Z,8.80
2023-03-26T19:13:43.244Z,8.80
2023-03-26T19:16:22.144Z,8.80
2023-03-26T19:18:49.325Z,8.80
2023-03-26T19:21:17.941Z,8.80
2023-03-26T19:23:46.579Z,8.80
2023-03-26T19:26:13.696Z,8.70
2023-03-26T19:28:41.745Z,8.70
2023-03-26T19:31:30.257Z,8.70
2023-03-26T19:33:58.538Z,8.70
2023-03-26T19:36:26.675Z,8.60
2023-03-26T19:38:54.337Z,8.70
2023-03-26T19:41:25.655Z,8.60
2023-03-26T19:43:57.932Z,8.60
2023-03-26T19:46:25.484Z,8.70
2023-03-26T19:48:54.066Z,8.70
2023-03-26T19:51:25.639Z,8.60
2023-03-26T19:53:53.983Z,8.50
2023-03-26T19:56:21.951Z,8.60
2023-03-26T19:58:50.120Z,8.50
2023-03-26T20:01:17.845Z,8.40
2023-03-26T20:03:46.822Z,8.40
2023-03-26T20:06:14.724Z,8.30
2023-03-26T20:08:41.507Z,8.30
2023-03-26T20:11:20.437Z,8.20
2023-03-26T20:13:47.482Z,8.10
2023-03-26T20:16:18.128Z,8.10
2023-03-26T20:18:44.781Z,8.00
2023-03-26T20:21:12.275Z,7.90
2023-03-26T20:23:39.599Z,7.90
2023-03-26T20:26:09.892Z,7.90
2023-03-26T20:28:47.278Z,7.90
2023-03-26T20:31:19.443Z,7.90
2023-03-26T20:33:46.284Z,7.90
2023-03-26T20:36:13.507Z,7.90
2023-03-26T20:38:40.933Z,7.80
2023-03-26T20:41:11.913Z,7.80
2023-03-26T20:43:38.497Z,7.80
2023-03-26T20:46:05.280Z,7.80
2023-03-26T20:48:31.938Z,7.70
2023-03-26T20:50:58.592Z,7.70
2023-03-26T20:53:25.202Z,7.70
2023-03-26T20:55:52.081Z,7.70
2023-03-26T20:58:31.043Z,7.70
2023-03-26T21:01:01.918Z,7.70
2023-03-26T21:03:28.982Z,7.70
2023-03-26T21:05:58.935Z,7.70
2023-03-26T21:08:30.102Z,7.70
2023-03-26T21:10:58.676Z,7.80
2023-03-26T21:13:34.592Z,7.70
2023-03-26T21:16:01.365Z,7.70
2023-03-26T21:18:28.760Z,7.70
2023-03-26T21:21:24.783Z,7.60
2023-03-26T21:24:00.846Z,7.60
2023-03-26T21:26:41.813Z,7.50
2023-03-26T21:29:08.708Z,7.50
2023-03-26T21:31:37.923Z,7.50
2023-03-26T21:34:05.592Z,7.50
2023-03-26T21:36:32.428Z,7.40
2023-03-26T21:38:59.530Z,7.50
2023-03-26T21:41:36.419Z,7.40
2023-03-26T21:44:03.652Z,7.40
2023-03-26T21:46:31.840Z,7.30
2023-03-26T21:48:58.654Z,7.30
2023-03-26T21:51:25.455Z,7.20
2023-03-26T21:53:52.200Z,7.10
2023-03-26T21:56:18.751Z,7.10
2023-03-26T21:58:51.196Z,7.10
2023-03-26T22:01:17.811Z,7.10
2023-03-26T22:03:55.031Z,7.00
2023-03-26T22:06:27.486Z,6.90
2023-03-26T22:08:54.158Z,6.90
2023-03-26T22:11:20.770Z,6.90
2023-03-26T22:13:47.369Z,6.90
2023-03-26T22:16:14.086Z,6.90
2023-03-26T22:18:43.586Z,6.90
2023-03-26T22:21:10.182Z,6.80
2023-03-26T22:23:38.237Z,6.90
2023-03-26T22:26:05.854Z,6.80
2023-03-26T22:28:32.715Z,6.80
2023-03-26T22:30:59.731Z,6.80
2023-03-26T22:33:26.700Z,6.80
2023-03-26T22:35:55.501Z,6.80
2023-03-26T22:38:22.156Z,6.80
2023-03-26T22:40:54.779Z,6.80
2023-03-26T22:43:21.598Z,6.80
2023-03-26T22:45:51.335Z,6.80
2023-03-26T22:48:18.262Z,6.70
2023-03-26T22:50:44.841Z,6.70
2023-03-26T22:53:11.631Z,6.70
2023-03-26T22:55:38.266Z,6.70
2023-03-26T22:58:04.848Z,6.70
2023-03-26T23:00:32.348Z,6.70
2023-03-26T23:03:00.507Z,6.70
2023-03-26T23:05:27.695Z,6.70
2023-03-26T23:07:54.274Z,6.70
2023-03-26T23:10:21.717Z,6.60
2023-03-26T23:12:48.583Z,6.60
2023-03-26T23:15:15.217Z,6.50
2023-03-26T23:17:42.307Z,6.50
2023-03-26T23:20:14.617Z,6.50
2023-03-26T23:22:42.600Z,6.40
2023-03-26T23:25:12.213Z,6.40
2023-03-26T23:27:39.978Z,6.30
2023-03-26T23:30:06.942Z,6.30
2023-03-26T23:32:37.729Z,6.20
2023-03-26T23:35:04.605Z,6.20
2023-03-26T23:37:34.787Z,6.20
2023-03-26T23:40:01.478Z,6.10
2023-03-26T23:42:29.740Z,6.10
2023-03-26T23:44:57.042Z,6.00
2023-03-26T23:47:23.998Z,6.00
2023-03-26T23:49:50.849Z,5.90
2023-03-26T23:52:17.482Z,6.00
2023-03-26T23:54:45.018Z,5.90
2023-03-26T23:57:11.935Z,5.80
2023-03-26T23:59:41.336Z,5.80
